Stainless Steel Sheets 304 Export from India

Stainless Steel Sheets 304

Stainless Steel Sheets 304 export data

Date HS Code Product Description Origin Port Destination Port Quantity Value (INR in Million) Unit Per Unit (INR)
2016-05-16 72192212 HOT ROLLED STAINLESS STEEL WIDE SHEETS (HAVING NI>8%) 10MMX1500MMX6000 - 304/NO1/TRIM EDGE FR.PR.SS.WIDT.600MM Vizac Sea St Petersburg (Ex Le 11 1.105 MTS 100452.0
2016-05-16 72192212 HOT ROLLED STAINLESS STEEL WIDE SHEETS (HAVING NI>8%) 8MMX1500MMX6000 - 304/NO1/TRIM EDGE FR.PR.SS.WIDT.600MM Vizac Sea St Petersburg (Ex Le 11 1.1219 MTS 101992.0
2016-05-16 72192320 HOT ROLLED STAINLESS STEEL WIDE SHEETS (HAVING NI>8%) 3MMX1250MMX2500 - 304/NO1/TRIM EDGE FR.PR.SS.WIDT.600MM Vizac Sea St Petersburg (Ex Le 7 0.7409 MTS 105839.0
2016-05-16 72199011 COLD ROLLED STAINLESS STEEL WIDE SHEETS(HAVING NI>8%) 5MMX1500MMX6000 - 304/2B/TRIM EDGE FR.PR.SS.WIDT.600MM Vizac Sea St Petersburg (Ex Le 6 0.6733 MTS 112209.0
2016-05-16 72199012 COLD ROLLED STAINLESS STEEL WIDE SHEETS(HAVING NI>8%) 3MMX1250MMX2500 - 304/2B/TRIM EDGE FR.PR.SS.WIDT.600MM Vizac Sea St Petersburg (Ex Le 5 0.5481 MTS 109620.0
2016-05-17 72192212 HOT ROLLED STAINLESS STEEL WIDE SHEETS (HAVING NI>8%) 5MMX1250MMX6000 - 304/NO1/TRIM EDGE FR.PR.SS.WIDT.600MM Vizac Sea St Petersburg (Ex Le 5 0.551 MTS 110204.0
2016-05-17 72201229 STAINLESS STEEL SHEET/COIL 304 GRADE SIZE : 0.18MM X 4.80MM Nhava Sheva Sea Dammam 1550 0.3981 KGS 256.0
2016-05-23 72192320 HOT ROLLED STAINLESS STEEL SHEETS PRIMEQUALITY SEPC. 3.000MM X 1220MM X 2.440 304/NO1/TRIM EDGE Garhi Harsaru - Gurgaon ICD Jeddah 57 6.1528 MTS 107943.0
2016-05-23 72192320 HOT ROLLED STAINLESS STEEL SHEETS PRIMEQUALITY SEPC. 4.000MM X 1220MM X 2.440 304/NO1/TRIM EDGE Garhi Harsaru - Gurgaon ICD Jeddah 17 1.8325 MTS 107795.0
2016-05-25 72199013 SS304 STAINLESS STEEL SHEETS C R STAINLESS STEEL SHEETS PRIME QUALITY SPEC. 1.500MM X 1220MM X 2,440 - 304 / 2B / TRIM Nhava Sheva Sea Jeddah 20 2.3031 MTS 115154.0
2016-05-27 72192212 HOT ROLLED STAINLESS STEEL WIDE SHEETS (HAVING NI>8%) 10MMX1250MMX2500 - 304/NO1/TRIM EDGE FR.PR.SS.WIDT.600MM Vizac Sea El Iskandariya (= Al 5 0.514 MTS 102798.0
2016-05-27 72192212 HOT ROLLED STAINLESS STEEL WIDE SHEETS (HAVING NI>8%) 10MMX1500MMX6000 - 304/NO1/TRIM EDGE FR.PR.SS.WIDT.600MM Vizac Sea El Iskandariya (= Al 6 0.6802 MTS 113360.0
2016-05-27 72192212 HOT ROLLED STAINLESS STEEL WIDE SHEETS (HAVING NI>8%) 8MMX1500MMX6000 - 304/NO1/TRIM EDGE FR.PR.SS.WIDT.600MM Vizac Sea El Iskandariya (= Al 11 1.2042 MTS 109474.0
2016-05-28 72192212 HOT ROLLED STAINLESS STEEL WIDE SHEETS (HAVING NI>8%) 6MMX1524MMX6096 - 304/NO1/TRIM EDGE FR.PR.SS.WIDT.600MM Vizac Sea Surabaya 22 2.4141 MTS 109731.0
2016-06-01 84219900 STAINLESS STEEL 304 GRADE PERFORATED SHEETS (CENTRIFUGAL MACHINE PARTS 500 X 2760 MM SS 304 Patparganj Karachi 88 0.1752 PCS 1990.0
2016-06-03 72199090 STAINLESS STEEL METALLIC SHEET TO ASTM A240 GR. TP 304, HOT ROLLED. SIZE: 1 MTRX 2 MTR X 6 MM THK Nhava Sheva Sea Dammam 7 0.1857 NOS 26526.0
2016-06-04 72192212 HOT ROLLED STAINLESS STEEL WIDE SHEETS (HAVING NI>8%) 6MMX1500MMX6000 - 304/NO1/TRIM EDGE FR.PR.SS.WIDT.600MM Vizac Sea St Petersburg (Ex Le 5 0.5385 MTS 107694.0
2016-06-04 72192419 STAINLESS STEEL SHEET, SSTL 304 SHIM SIZE: 0.10 MM X 1000 MM X 1000 MM REEL Bombay Air Cargo RIYADH 3 0.0052 NOS 1749.0
2016-06-04 72192419 STAINLESS STEEL SHEET, SSTL 304 SHIM SIZE: 0.20 MM X 1000 MM X 1000 MM REEL Bombay Air Cargo RIYADH 6 0.0138 NOS 2296.0
2016-06-04 72192419 STAINLESS STEEL SHEET, SSTL 304 SHIM SIZE: 0.50 MM X 1000 MM X 1000 MM REEL Bombay Air Cargo RIYADH 3 0.0079 NOS 2624.0
2016-06-07 72199013 COLD ROLLED STAINLESS STEEL WIDE SHEETS(HAVING NI>8 %) 0.8MMX1250MMX2500 - 304/2B/TRIM EDGE FR.PR.SS.WIDT.600MM Vizac Sea St Petersburg (Ex Le 4 0.4924 MTS 123108.0
2016-06-07 72199013 COLD ROLLED STAINLESS STEEL WIDE SHEETS(HAVING NI>8 %) 1.0MMX1250MMX2500 - 304/2B/TRIM EDGE FR.PR.SS.WIDT.600MM Vizac Sea St Petersburg (Ex Le 8 0.8854 MTS 110670.0
2016-06-08 72199013 C R STAINLESS STEEL SHEETS PRIME QUALITYSPEC. 0.800MM X 1000MM X 2.000-304/2B/TRIM EDGE Garhi Harsaru - Gurgaon ICD St Petersburg (Ex Le 5 0.574 MTS 114795.0
2016-06-15 72192212 HOT ROLLED STAINLESS STEEL WIDE SHEETS (HAVING NI>8%) 6.000MMX1219MMX2438 -304/NO1/TRIM EDGE.FR.PR.SSWIDTOF600MM Vizac Sea Surabaya 42 4.5761 MTS 108955.0
2016-06-15 72192212 HOT ROLLED STAINLESS STEEL WIDE SHEETS (HAVING NI>8%) 8.000MMX1219MMX2438 -304/NO1/TRIM EDGE.FR.PR.SSWIDTOF600MM Vizac Sea Surabaya 17 1.8162 MTS 106834.0
2016-06-21 72192212 HOT ROLLED STAINLESS STEEL WIDE SHEETS (HAVING NI>8%) 10MMX1500MMX6000 - 304/NO1/TRIM EDGE FR.PR.SS.WIDT.600MM Vizac Sea Alexandra(Egypt) 19 2.0697 MTS 108931.0
2016-06-21 72192212 HOT ROLLED STAINLESS STEEL WIDE SHEETS (HAVING NI>8%) 8MMX1250MMX2500 - 304/NO1/TRIM EDGE FR.PR.SS.WIDT.600MM Vizac Sea Alexandra(Egypt) 7 0.756 MTS 107995.0
2016-06-21 72192212 HOT ROLLED STAINLESS STEEL WIDE SHEETS (HAVING NI>8%) 8MMX1500MMX6000 - 304/NO1/TRIM EDGE FR.PR.SS.WIDT.600MM Vizac Sea Alexandra(Egypt) 21 2.1814 MTS 103876.0
2016-06-24 84135090 STAINLESS STEEL 304 (FABRICATED SHEET METAL) SUBMERSIBLE ONLY PUMP MODEL:AM-46 STAGE:12 DISCHARGE HEAD 4" TPI:11 TPI AS Sabarmati ICD Valencia 2 0.0427 NOS 21327.0
2016-06-27 72199013 COLD ROLLED STAINLESS STEEL WIDE SHEETS(HAVING NI>8%) 1.500MMX1524MMX3048 -304/2B/TRIM EDGE.FR.PR.SSWIDTOF600MM Vizac Sea Buenaventura 13 1.4095 MTS 108420.0
2016-06-27 72199013 COLD ROLLED STAINLESS STEEL WIDE SHEETS(HAVING NI>8%) 1.900MMX1524MMX3048 -304/2B/TRIM EDGE.FR.PR.SSWIDTOF600MM Vizac Sea Buenaventura 18 1.9137 MTS 106316.0
2016-06-28 72193320 STAINLESS STEEL CR COILS/ SHEETS PRIME QUALITY SPEC 1.200MM X 1250MM X COIL- 304/NO 4/ TRIM EDGE Garhi Harsaru - Gurgaon ICD Bandar Abbas 11 1.3401 MTS 121830.0
2016-06-28 72193320 STAINLESS STEEL CR COILS/ SHEETS PRIME QUALITY SPEC 1.500MM X 1000MMX COIL-304/NO4/ TRIM EDGE Garhi Harsaru - Gurgaon ICD Bandar Abbas 10 1.2167 MTS 121669.0
2016-06-28 72193420 STAINLESS STEEL CR COILS/ SHEETS PRIME QUALITY SPEC 0.800MM X 1250MM X COIL- 304/NO.4/ TRIM EDGE Garhi Harsaru - Gurgaon ICD Bandar Abbas 11 1.3162 MTS 119651.0
2016-06-28 72193420 STAINLESS STEEL CR COILS/ SHEETS PRIME QUALITY SPEC 0.800MM X 1000MM X COIL- 304/NO 4/TRIM EDGE Garhi Harsaru - Gurgaon ICD Bandar Abbas 10 1.3045 MTS 130447.0
2016-06-28 72193420 STAINLESS STEEL HR & CR COILS/SHEETS PRIM QUALITY SPEC. : 2.000MM X 1250MM X2,500- 304/NO. 4/TRIM EDGE Garhi Harsaru - Gurgaon ICD Bandar Abbas 9 1.1428 MTS 126979.0

Stainless Steel Sheets 304 Trade Data - Indian Ports

S. No Product Product Code Quantity Value (INR in Million) Unit Origin Port Destination Port
COLD ROLLED STAINLESS STEEL WIDE SHEETS(HAVING NI>8%) 1.5MMX1500MMX3000 - 304/2B/TRIM EDGE FR.PR.SS.WIDT.600MM 72199013 5 0.5709 MTS Vizac Sea St Petersburg (Ex Le
COLD ROLLED STAINLESS STEEL WIDE SHEETS(HAVING NI>8%) 1MMX1250MMX2500 - 304/2B/TRIM EDGE FR.PR.SS.WIDT.600MM 72199013 8 0.9442 MTS Vizac Sea St Petersburg (Ex Le
COLD ROLLED STAINLESS STEEL WIDE SHEETS(HAVING NI>8%) 2MMX1250MMX2500 - 304/2B/TRIM EDGE FR.PR.SS.WIDT.600MM 72199013 10 1.1348 MTS Vizac Sea St Petersburg (Ex Le
STAINLESS STEEL SHEETS 304 GRADE BA FINISH 1.20X423.50MM 72109090 73 0.0121 KGS Bangalore ICD Manila North Harbor
STAINLESS STEEL SHEETS 304 GRADE BA FINISH 1.20X523.00MM 72109090 90 0.0179 KGS Bangalore ICD Manila North Harbor
HOT ROLLED STAINLESS STEEL WIDE SHEETS (HAVING NI>8%) 10MMX1500MMX6000 - 304/NO1/TRIM EDGE FR.PR.SS.WIDT.600MM 72192212 5 0.5636 MTS Vizac Sea St Petersburg (Ex Le
HOT ROLLED STAINLESS STEEL WIDE SHEETS (HAVING NI>8%) 5MMX1500MMX6000 - 304/NO1/TRIM EDGE FR.PR.SS.WIDT.600MM 72192212 5 0.5308 MTS Vizac Sea St Petersburg (Ex Le
HOT ROLLED STAINLESS STEEL WIDE SHEETS (HAVING NI>8%) 8MMX1500MMX6000 - 304/NO1/TRIM EDGE FR.PR.SS.WIDT.600MM 72192212 5 0.5166 MTS Vizac Sea St Petersburg (Ex Le
HOT ROLLED STAINLESS STEEL WIDE SHEETS (HAVING NI>8%) 3MMX1500MMX6000 - 304/NO1/TRIM EDGE FR.PR.SS.WIDT.600MM 72192320 4 0.4366 MTS Vizac Sea St Petersburg (Ex Le
HOT ROLLED STAINLESS STEEL WIDE SHEETS (HAVING NI>8%) 6MMX1500MMX6000 - 304/NO1/TRIM EDGE FR.PR.SS.WIDT.600MM 72192212 4 0.4323 MTS Vizac Sea St Petersburg (Ex Le
HOT ROLLED STAINLESS STEEL WIDE SHEETS (HAVING NI>8%) 3MMX1500MMX6000 - 304/NO1/TRIM EDGE FR.PR.SS.WIDT.600MM 72192320 8 0.8612 MTS Vizac Sea St Petersburg (Ex Le
C R STAINLESS STEEL SHEETS PRIME QUALITYSPEC. 1.000MM X 1000MM X 2,000 - 304 /2B / TRIM EDGE 72199013 7 0.8193 MTS Nhava Sheva Sea St Petersburg (Ex Le
C R STAINLESS STEEL SHEETS PRIME QUALITYSPEC. 1.500MM X 1000MM X 2,000 - 304 /2B / TRIM EDGE 72199013 14 1.567 MTS Nhava Sheva Sea St Petersburg (Ex Le

Looking to export Stainless Steel Sheets 304 from India?

With end to end global trade solutions from Connect2India, we enable Indian SMEs to start and grow their business globally

The following graphs and table will provide data on Stainless Steel Sheets 304 export based on different Indian ports, top importing ports and top export shipments of Stainless Steel Sheets 304 from India.

There are about 12 top exporting ports in India which trade Stainless Steel Sheets 304 from India, Vizac Sea exports the majority of Stainless Steel Sheets 304 shipments from India with the share of 46.0% , followed by Garhi Harsaru - Gurgaon ICD with 24.0%.

Moving to top importing ports for Stainless Steel Sheets 304 from India. St Petersburg (Ex Le port solely imports 181 shipments of Stainless Steel Sheets 304 from India and holds the largest share of 57.0%.

Looking to arrange Stainless Steel Sheets 304 export order to verified buyers across the globe?

Graphical representation for Stainless Steel Sheets 304 export

Stainless Steel Sheets 304 - Recent export data

How connect2india can help you export Stainless Steel Sheets 304?

Connect2India can help you analyse Stainless Steel Sheets 304 export data from India to all buying countries. Users can also find here Stainless Steel Sheets 304 manufacturers, Stainless Steel Sheets 304 exporters, global buyers etc. Our platform also helps you to figure out the right target market to export Stainless Steel Sheets 304 and arrange export order, know about the procedure and formalities for export and help you in Stainless Steel Sheets 304 shipment and logistics. Our trade experts are always available for any help regarding the export of Stainless Steel Sheets 304 and its products. If you want more information, please get in touch with our trade experts here.

People Also Ask

Which is the most popular Indian port for Stainless Steel Sheets 304 export?

Vizac Sea is the most popular port for Stainless Steel Sheets 304 export from India

What are the top three export shipments of Stainless Steel Sheets 304 traded from India?

Following are the top three export shipments of Stainless Steel Sheets 304 traded from India :

  • HOT ROLLED STAINLESS STEEL WIDE SHEETS (HAVING NI>8%) 10MMX1500MMX6000 - 304/NO1/TRIM EDGE FR.PR.SS.WIDT.600MM
  • HOT ROLLED STAINLESS STEEL WIDE SHEETS (HAVING NI>8%) 8MMX1500MMX6000 - 304/NO1/TRIM EDGE FR.PR.SS.WIDT.600MM
  • HOT ROLLED STAINLESS STEEL WIDE SHEETS (HAVING NI>8%) 3MMX1250MMX2500 - 304/NO1/TRIM EDGE FR.PR.SS.WIDT.600MM